Time;durP1;ratioP1;P1;durP2;ratioP2;P2;SDS_P1;SDS_P2;PMS_P1;PMS_P2;Temp;Humidity;BMP_temperature;BMP_pressure;BME280_temperature;BME280_humidity;BME280_pressure;Samples;Min_cycle;Max_cycle;Signal;HPM_P1;HPM_P2
2020/12/03 00:00:30;;;;;;;86.30;34.67;;;;;;;-1.09;100.00;101960.91;5074658;28;20035;-77
2020/12/03 00:03:00;;;;;;;81.75;30.20;;;;;;;-1.19;100.00;101968.50;5074372;28;20031;-78
2020/12/03 00:05:26;;;;;;;101.32;37.15;;;;;;;-1.12;100.00;101964.56;5074419;28;20033;-77
2020/12/03 00:07:53;;;;;;;108.47;43.67;;;;;;;-1.12;100.00;101968.91;5074581;28;20051;-78
2020/12/03 00:10:19;;;;;;;109.00;45.38;;;;;;;-1.14;100.00;101976.03;5074551;28;20114;-77
2020/12/03 00:13:00;;;;;;;138.05;60.72;;;;;;;-1.12;100.00;101982.81;5075439;28;20483;-78
2020/12/03 00:15:25;;;;;;;114.22;50.35;;;;;;;-1.15;100.00;101980.38;5074163;28;20052;-77
2020/12/03 00:17:51;;;;;;;92.88;35.00;;;;;;;-1.12;100.00;101990.66;5074438;28;20077;-77
2020/12/03 00:20:17;;;;;;;83.30;32.67;;;;;;;-1.10;100.00;101982.72;5074289;28;20437;-78
2020/12/03 00:22:43;;;;;;;81.28;30.38;;;;;;;-1.07;100.00;101987.72;5074173;28;20056;-77
2020/12/03 00:25:09;;;;;;;99.40;31.98;;;;;;;-1.12;100.00;101987.16;5075269;28;20119;-77
2020/12/03 00:27:35;;;;;;;118.85;42.10;;;;;;;-1.08;100.00;101986.06;5075239;28;20385;-77
2020/12/03 00:30:01;;;;;;;111.50;44.03;;;;;;;-1.02;100.00;101976.06;5074071;28;20024;-78
2020/12/03 00:32:27;;;;;;;92.43;35.13;;;;;;;-1.10;100.00;101980.09;5073846;28;20028;-77
2020/12/03 00:34:52;;;;;;;83.20;34.40;;;;;;;-1.02;100.00;101976.06;5075067;28;20035;-77
2020/12/03 00:37:17;;;;;;;99.47;34.75;;;;;;;-1.09;100.00;101973.94;5073918;28;20028;-77
2020/12/03 00:39:43;;;;;;;93.38;34.20;;;;;;;-1.01;100.00;101976.88;5073955;28;20028;-77
2020/12/03 00:42:08;;;;;;;86.25;33.42;;;;;;;-0.97;100.00;101984.44;5074910;28;20119;-77
2020/12/03 00:44:33;;;;;;;90.72;32.70;;;;;;;-1.07;100.00;101978.13;5074680;28;20046;-78
2020/12/03 00:46:59;;;;;;;95.75;31.38;;;;;;;-1.10;100.00;101985.31;5073746;28;20025;-78
2020/12/03 00:49:24;;;;;;;86.13;29.73;;;;;;;-1.13;100.00;101980.31;5073683;28;20177;-77
2020/12/03 00:51:50;;;;;;;82.45;29.75;;;;;;;-1.14;100.00;101989.91;5073718;28;20037;-78
2020/12/03 00:54:16;;;;;;;90.65;28.10;;;;;;;-1.12;100.00;101982.81;5074665;28;20051;-77
2020/12/03 00:56:42;;;;;;;90.32;30.50;;;;;;;-1.06;100.00;101976.34;5073545;28;20465;-77
2020/12/03 00:59:08;;;;;;;92.72;32.92;;;;;;;-1.10;100.00;101982.72;5073554;28;20111;-77
2020/12/03 01:01:34;;;;;;;74.80;27.80;;;;;;;-1.13;100.00;101972.47;5073483;28;20048;-78
2020/12/03 01:03:59;;;;;;;84.60;30.52;;;;;;;-1.06;100.00;101976.34;5074226;28;20020;-78
2020/12/03 01:06:25;;;;;;;91.75;31.90;;;;;;;-1.08;100.00;101973.03;5073458;28;20480;-77
2020/12/03 01:08:50;;;;;;;77.78;27.92;;;;;;;-1.12;100.00;101966.31;5073328;28;20028;-77
2020/12/03 01:11:19;;;;;;;84.35;29.70;;;;;;;-1.07;100.00;101967.69;5074276;28;20137;-77
2020/12/03 01:13:44;;;;;;;79.07;28.10;;;;;;;-1.06;100.00;101960.69;5073043;28;20110;-77
2020/12/03 01:16:13;;;;;;;90.13;29.52;;;;;;;-1.04;100.00;101954.44;5073161;28;20017;-78
2020/12/03 01:18:39;;;;;;;72.63;28.25;;;;;;;-1.01;100.00;101948.19;5073198;28;20024;-77
2020/12/03 01:21:04;;;;;;;84.22;29.08;;;;;;;-0.98;100.00;101942.78;5073081;28;20483;-77
2020/12/03 01:23:30;;;;;;;82.63;30.13;;;;;;;-1.06;100.00;101943.31;5072967;28;20397;-77
2020/12/03 01:25:55;;;;;;;80.97;26.88;;;;;;;-1.06;100.00;101939.84;5072983;28;20021;-78
2020/12/03 01:28:20;;;;;;;77.60;27.17;;;;;;;-1.02;100.00;101943.94;5072911;28;20409;-77
2020/12/03 01:30:46;;;;;;;78.72;28.17;;;;;;;-1.06;100.00;101935.47;5072964;28;20104;-78
2020/12/03 01:33:11;;;;;;;91.78;30.85;;;;;;;-1.11;100.00;101932.34;5073800;28;20515;-77
2020/12/03 01:35:36;;;;;;;88.57;30.35;;;;;;;-1.11;100.00;101945.38;5072867;28;20029;-77
2020/12/03 01:38:02;;;;;;;88.40;27.88;;;;;;;-1.12;100.00;101938.50;5073685;28;20085;-77
2020/12/03 01:40:27;;;;;;;89.07;28.17;;;;;;;-1.16;100.00;101931.78;5073776;28;20024;-77
2020/12/03 01:42:54;;;;;;;93.63;28.38;;;;;;;-1.08;100.00;101931.31;5072636;28;20118;-78
2020/12/03 01:45:55;;;;;;;97.35;31.45;;;;;;;-1.09;100.00;101929.59;5072039;28;20028;-78
2020/12/03 01:48:41;;;;;;;91.85;29.83;;;;;;;-1.14;100.00;101922.09;5072681;28;20022;-77
2020/12/03 01:51:09;;;;;;;92.18;31.50;;;;;;;-1.12;100.00;101919.38;5072560;28;20468;-77
2020/12/03 01:53:35;;;;;;;104.82;29.33;;;;;;;-1.05;100.00;101915.44;5073619;28;20028;-77
2020/12/03 01:56:19;;;;;;;97.72;31.90;;;;;;;-1.14;100.00;101918.66;5073566;28;20021;-77
2020/12/03 01:58:45;;;;;;;99.40;29.88;;;;;;;-1.10;100.00;101920.13;5072573;28;20025;-78
2020/12/03 02:01:11;;;;;;;106.80;30.33;;;;;;;-1.11;100.00;101914.06;5072536;28;20115;-77
2020/12/03 02:03:46;;;;;;;94.85;32.70;;;;;;;-1.16;100.00;101910.94;5072235;28;20036;-77
2020/12/03 02:06:18;;;;;;;120.28;33.70;;;;;;;-1.13;100.00;101909.91;5072311;28;20044;-77
2020/12/03 02:08:44;;;;;;;106.90;32.50;;;;;;;-1.11;100.00;101916.69;5072525;28;20024;-77
2020/12/03 02:11:09;;;;;;;101.90;31.90;;;;;;;-1.06;100.00;101912.00;5073453;28;20275;-77
2020/12/03 02:13:34;;;;;;;107.32;31.17;;;;;;;-1.10;100.00;101909.69;5072189;28;20057;-77
2020/12/03 02:16:00;;;;;;;100.20;31.55;;;;;;;-1.11;100.00;101902.81;5073521;28;20049;-77
2020/12/03 02:18:26;;;;;;;110.10;31.52;;;;;;;-1.07;100.00;101904.28;5072383;28;20385;-77
2020/12/03 02:20:51;;;;;;;116.57;32.75;;;;;;;-1.10;100.00;101894.88;5072296;28;20028;-77
2020/12/03 02:23:17;;;;;;;108.97;31.88;;;;;;;-1.07;100.00;101899.06;5073209;28;20024;-77
2020/12/03 02:25:43;;;;;;;102.30;32.45;;;;;;;-1.13;100.00;101889.88;5073142;28;20016;-77
2020/12/03 02:28:08;;;;;;;106.28;32.30;;;;;;;-1.24;100.00;101887.97;5072238;28;20093;-78
2020/12/03 02:30:34;;;;;;;105.43;33.58;;;;;;;-1.29;100.00;101887.44;5073795;28;20112;-77
2020/12/03 02:33:00;;;;;;;102.03;30.73;;;;;;;-1.36;100.00;101888.78;5072242;28;20115;-77
2020/12/03 02:35:25;;;;;;;100.78;29.52;;;;;;;-1.40;100.00;101884.69;5072193;28;20444;-78
2020/12/03 02:37:51;;;;;;;108.88;31.13;;;;;;;-1.53;100.00;101887.25;5072068;28;20020;-78
2020/12/03 02:40:16;;;;;;;114.70;35.00;;;;;;;-1.55;100.00;101883.06;5072072;28;20024;-77
2020/12/03 02:42:41;;;;;;;126.35;35.25;;;;;;;-1.59;100.00;101881.59;5072067;28;20071;-78
2020/12/03 02:45:07;;;;;;;132.65;37.75;;;;;;;-1.62;100.00;101888.69;5072121;28;20020;-77
2020/12/03 02:47:32;;;;;;;129.82;37.65;;;;;;;-1.64;100.00;101872.28;5072051;28;20036;-77
2020/12/03 02:49:58;;;;;;;154.68;46.08;;;;;;;-1.68;100.00;101876.03;5072014;28;20035;-77
2020/12/03 02:52:24;;;;;;;148.07;45.25;;;;;;;-1.71;100.00;101873.63;5072030;28;20028;-77
2020/12/03 02:54:50;;;;;;;124.10;39.05;;;;;;;-1.70;100.00;101869.25;5071962;28;20016;-77
2020/12/03 02:57:17;;;;;;;144.98;37.08;;;;;;;-1.68;100.00;101876.03;5074788;28;20107;-77
2020/12/03 02:59:42;;;;;;;141.82;36.30;;;;;;;-1.67;100.00;101879.47;5075746;28;20052;-77
2020/12/03 03:02:08;;;;;;;128.40;37.72;;;;;;;-1.67;100.00;101879.47;5076828;28;20063;-77
2020/12/03 03:04:34;;;;;;;140.50;35.97;;;;;;;-1.70;100.00;101884.88;5077129;28;20116;-77
2020/12/03 03:07:00;;;;;;;132.30;36.10;;;;;;;-1.76;100.00;101883.50;5075630;28;20445;-77
2020/12/03 03:09:25;;;;;;;133.98;36.85;;;;;;;-1.78;100.00;101880.19;5075623;28;20035;-78
2020/12/03 03:15:12;;;;;;;120.93;36.22;;;;;;;-1.69;100.00;101881.38;5076232;28;20059;-78
2020/12/03 03:17:38;;;;;;;131.57;37.15;;;;;;;-1.67;100.00;101880.31;5075496;28;20465;-78
2020/12/03 03:20:03;;;;;;;137.55;35.50;;;;;;;-1.72;100.00;101884.16;5075454;28;20445;-78
2020/12/03 03:22:28;;;;;;;136.02;33.75;;;;;;;-1.75;100.00;101882.59;5075385;28;20511;-78
2020/12/03 03:24:54;;;;;;;140.02;38.13;;;;;;;-1.73;100.00;101885.91;5076291;28;20020;-78
2020/12/03 03:27:19;;;;;;;159.45;39.78;;;;;;;-1.68;100.00;101888.25;5076239;28;20021;-78
2020/12/03 03:29:45;;;;;;;139.52;35.05;;;;;;;-1.71;100.00;101889.25;5076198;28;20457;-78
2020/12/03 03:32:11;;;;;;;151.50;38.90;;;;;;;-1.68;100.00;101888.25;5076170;28;20123;-77
2020/12/03 03:34:36;;;;;;;176.80;53.70;;;;;;;-1.65;100.00;101890.66;5075183;28;20051;-77
2020/12/03 03:37:03;;;;;;;146.82;41.90;;;;;;;-1.66;100.00;101875.97;5075123;28;20104;-78
2020/12/03 03:39:28;;;;;;;159.27;45.03;;;;;;;-1.66;100.00;101870.75;5076200;28;20028;-78
2020/12/03 03:41:56;;;;;;;133.57;35.22;;;;;;;-1.67;100.00;101869.06;5076462;28;20025;-78
2020/12/03 03:44:22;;;;;;;145.00;41.53;;;;;;;-1.58;100.00;101865.03;5074898;28;20450;-78
2020/12/03 03:46:48;;;;;;;133.32;40.08;;;;;;;-1.58;100.00;101863.25;5074999;28;20078;-78
2020/12/03 03:49:14;;;;;;;176.48;61.40;;;;;;;-1.54;100.00;101858.66;5075113;28;20507;-79
2020/12/03 03:51:39;;;;;;;151.13;47.15;;;;;;;-1.54;100.00;101862.13;5074760;28;20116;-79
2020/12/03 03:54:05;;;;;;;132.15;39.95;;;;;;;-1.51;100.00;101866.28;5074870;28;20108;-78
2020/12/03 03:56:31;;;;;;;148.05;44.45;;;;;;;-1.52;100.00;101865.47;5074758;28;20020;-78
2020/12/03 03:58:57;;;;;;;136.07;39.47;;;;;;;-1.56;100.00;101868.38;5075939;28;20024;-78
2020/12/03 04:01:23;;;;;;;134.20;48.45;;;;;;;-1.48;100.00;101869.56;5074714;28;20409;-78
2020/12/03 04:03:48;;;;;;;143.18;44.25;;;;;;;-1.46;100.00;101874.66;5075377;28;20025;-78
2020/12/03 04:06:13;;;;;;;121.07;36.75;;;;;;;-1.54;100.00;101869.97;5074440;28;20450;-78
2020/12/03 04:08:39;;;;;;;140.30;42.83;;;;;;;-1.52;100.00;101864.63;5073766;28;20032;-78
2020/12/03 04:11:04;;;;;;;144.88;38.63;;;;;;;-1.54;100.00;101861.28;5075451;28;20020;-78
2020/12/03 04:13:30;;;;;;;129.13;36.97;;;;;;;-1.45;100.00;101858.94;5075782;28;20016;-78
2020/12/03 04:15:55;;;;;;;137.25;37.72;;;;;;;-1.34;100.00;101853.00;5075326;28;20039;-77
2020/12/03 04:18:26;;;;;;;129.10;38.25;;;;;;;-1.33;100.00;101853.84;5074436;28;20021;-78
2020/12/03 04:20:56;;;;;;;140.77;40.80;;;;;;;-1.32;100.00;101855.53;5075471;28;20496;-78
2020/12/03 04:23:21;;;;;;;138.48;42.50;;;;;;;-1.29;100.00;101863.97;5074229;28;20366;-78
2020/12/03 04:25:47;;;;;;;123.70;35.97;;;;;;;-1.25;100.00;101859.38;5074249;28;20099;-78
2020/12/03 04:28:13;;;;;;;111.50;35.65;;;;;;;-1.17;100.00;101862.34;5074135;28;20025;-78
2020/12/03 04:30:38;;;;;;;109.72;36.58;;;;;;;-1.12;100.00;101868.09;5074175;28;20043;-78
2020/12/03 04:33:04;;;;;;;126.65;43.58;;;;;;;-1.22;100.00;101870.44;5075137;28;20377;-78
2020/12/03 04:35:29;;;;;;;154.93;58.50;;;;;;;-1.17;100.00;101863.16;5075017;28;20029;-78
2020/12/03 04:37:54;;;;;;;155.98;57.95;;;;;;;-1.16;100.00;101859.59;5073962;28;20058;-79
2020/12/03 04:40:33;;;;;;;126.20;47.42;;;;;;;-1.12;100.00;101859.41;5073931;28;20055;-78
2020/12/03 04:43:13;;;;;;;136.93;51.00;;;;;;;-1.09;100.00;101846.16;5073769;28;20025;-78
2020/12/03 04:45:51;;;;;;;137.88;50.63;;;;;;;-1.08;100.00;101851.28;5073810;28;20064;-79
2020/12/03 04:48:43;;;;;;;125.68;41.42;;;;;;;-1.11;100.00;101848.88;5073848;28;20016;-79
2020/12/03 04:51:37;;;;;;;151.60;50.70;;;;;;;-1.11;100.00;101858.50;5074749;28;20095;-77
2020/12/03 04:54:39;;;;;;;172.45;52.30;;;;;;;-1.07;100.00;101854.72;5074695;28;20020;-79
2020/12/03 04:57:20;;;;;;;168.32;52.92;;;;;;;-1.01;100.00;101851.72;5073644;28;20492;-77
2020/12/03 05:00:12;;;;;;;168.57;66.57;;;;;;;-1.11;100.00;101843.66;5073543;28;20036;-78
2020/12/03 05:02:46;;;;;;;142.37;47.23;;;;;;;-1.10;100.00;101847.09;5074322;28;20066;-79
2020/12/03 05:05:15;;;;;;;122.35;38.75;;;;;;;-1.07;100.00;101841.69;5073358;28;20381;-78
2020/12/03 05:07:43;;;;;;;108.07;36.33;;;;;;;-1.09;100.00;101849.63;5074430;28;20024;-77
2020/12/03 05:10:38;;;;;;;121.68;38.22;;;;;;;-1.09;100.00;101846.16;5074291;28;20036;-77
2020/12/03 05:13:03;;;;;;;116.53;36.63;;;;;;;-1.09;100.00;101854.84;5074285;28;20056;-78
2020/12/03 05:15:32;;;;;;;118.28;41.03;;;;;;;-1.10;100.00;101860.16;5072920;28;20450;-77
2020/12/03 05:18:06;;;;;;;122.70;36.35;;;;;;;-1.11;100.00;101854.09;5073197;28;20097;-77
2020/12/03 05:20:50;;;;;;;116.65;45.28;;;;;;;-1.00;100.00;101855.97;5073136;28;20024;-77
2020/12/03 05:23:20;;;;;;;102.82;37.47;;;;;;;-0.94;100.00;101845.13;5073038;28;20024;-78
2020/12/03 05:25:48;;;;;;;136.45;55.45;;;;;;;-0.96;100.00;101834.81;5072951;28;20020;-77
2020/12/03 05:28:31;;;;;;;101.28;37.28;;;;;;;-0.95;100.00;101838.25;5072952;28;20040;-77
2020/12/03 05:31:23;;;;;;;121.68;49.03;;;;;;;-1.00;100.00;101838.59;5072982;28;20025;-77
2020/12/03 05:33:50;;;;;;;100.07;38.95;;;;;;;-0.95;100.00;101843.47;5066207;28;20421;-77
2020/12/03 05:36:37;;;;;;;94.38;34.83;;;;;;;-0.88;100.00;101844.72;5072818;28;20028;-78
2020/12/03 05:39:07;;;;;;;117.60;48.05;;;;;;;-0.89;100.00;101840.44;5072807;28;20472;-77
2020/12/03 05:41:39;;;;;;;94.22;39.92;;;;;;;-0.85;100.00;101834.06;5072737;28;20539;-77
2020/12/03 05:44:33;;;;;;;107.10;39.88;;;;;;;-0.79;100.00;101841.47;5073618;28;20470;-77
2020/12/03 05:46:59;;;;;;;97.38;40.72;;;;;;;-0.73;100.00;101845.44;5055583;28;20465;-77
2020/12/03 05:49:27;;;;;;;98.00;38.35;;;;;;;-0.84;100.00;101842.75;5072662;28;20040;-77
2020/12/03 05:52:20;;;;;;;82.47;31.40;;;;;;;-0.76;100.00;101843.88;5072671;28;20032;-76
2020/12/03 05:55:08;;;;;;;70.72;27.83;;;;;;;-0.83;100.00;101854.84;5073646;28;20085;-77
2020/12/03 05:57:42;;;;;;;69.00;27.05;;;;;;;-0.78;100.00;101845.78;5072640;28;20028;-77
2020/12/03 06:00:14;;;;;;;77.20;29.05;;;;;;;-0.80;100.00;101852.88;5072552;28;20020;-77
2020/12/03 06:03:22;;;;;;;67.05;27.52;;;;;;;-0.74;100.00;101846.41;5072295;28;20052;-78
2020/12/03 06:06:07;;;;;;;68.25;23.80;;;;;;;-0.77;100.00;101850.06;5064101;28;20040;-77
2020/12/03 06:09:23;;;;;;;71.43;28.75;;;;;;;-0.75;100.00;101857.78;5072441;28;20138;-77
2020/12/03 06:12:25;;;;;;;67.13;23.65;;;;;;;-0.75;100.00;101845.56;5039169;28;20036;-77
2020/12/03 06:14:51;;;;;;;72.40;23.67;;;;;;;-0.81;100.00;101843.38;5072152;28;20041;-78
2020/12/03 06:17:38;;;;;;;91.97;31.23;;;;;;;-0.76;100.00;101840.44;5072329;28;20082;-78
2020/12/03 06:20:17;;;;;;;85.93;31.67;;;;;;;-0.77;100.00;101846.59;5072290;28;20024;-78
2020/12/03 06:22:45;;;;;;;83.28;30.27;;;;;;;-0.74;100.00;101849.00;5072240;28;20115;-77
2020/12/03 06:25:29;;;;;;;96.32;34.03;;;;;;;-0.73;100.00;101845.44;5072261;28;20127;-78
2020/12/03 06:28:31;;;;;;;85.47;32.28;;;;;;;-0.62;100.00;101849.94;5073164;28;20099;-78
2020/12/03 06:31:27;;;;;;;79.57;28.25;;;;;;;-0.70;100.00;101840.03;5073005;28;20024;-78
2020/12/03 06:34:03;;;;;;;78.57;31.48;;;;;;;-0.65;100.00;101845.78;5076360;28;20020;-78
2020/12/03 06:36:42;;;;;;;75.57;29.38;;;;;;;-0.60;100.00;101851.50;5076338;28;20052;-78
2020/12/03 06:39:43;;;;;;;71.32;30.17;;;;;;;-0.61;100.00;101862.03;5077147;28;20099;-78
2020/12/03 06:42:22;;;;;;;79.45;31.40;;;;;;;-0.53;100.00;101857.13;5044544;28;20052;-77
2020/12/03 06:44:55;;;;;;;72.63;28.58;;;;;;;-0.49;100.00;101855.97;5077284;28;20036;-78
2020/12/03 06:47:47;;;;;;;67.00;24.90;;;;;;;-0.48;100.00;101857.66;5076120;28;20115;-77
2020/12/03 06:50:15;;;;;;;;;;;;;;;-0.42;100.00;101848.56;5077720;28;20108;-78
2020/12/03 06:53:17;;;;;;;49.25;15.95;;;;;;;0.93;100.00;101852.69;5076982;28;19919;-78
2020/12/03 06:56:23;;;;;;;43.80;18.55;;;;;;;-0.15;100.00;101846.66;5076877;28;20081;-79
2020/12/03 06:59:01;;;;;;;58.72;25.98;;;;;;;-0.33;100.00;101856.59;5076961;28;20124;-77
2020/12/03 07:02:12;;;;;;;105.30;40.20;;;;;;;-0.30;100.00;101855.56;5075955;28;20083;-81
2020/12/03 07:05:16;;;;;;;63.28;22.10;;;;;;;-0.21;100.00;101854.91;5040002;28;20033;-78
2020/12/03 07:07:50;;;;;;;48.30;20.48;;;;;;;-0.26;100.00;101850.00;5075823;28;20480;-79
2020/12/03 07:10:43;;;;;;;37.22;14.63;;;;;;;-0.19;100.00;101855.63;5079475;28;20491;-78
2020/12/03 07:13:20;;;;;;;50.40;18.95;;;;;;;-0.30;100.00;101861.59;5076679;28;20043;-78
2020/12/03 07:16:10;;;;;;;70.30;32.22;;;;;;;-0.20;100.00;101860.97;5065264;28;20049;-78
2020/12/03 07:19:22;;;;;;;67.03;25.55;;;;;;;-0.31;100.00;101864.31;5008363;28;20199;-79
2020/12/03 07:22:05;;;;;;;102.22;36.85;;;;;;;-0.24;100.00;101870.78;5043050;28;20097;-78
2020/12/03 07:24:32;;;;;;;;;;;;;;;-0.26;100.00;101851.78;5047384;28;20466;-77
2020/12/03 07:27:07;;;;;;;56.28;24.10;;;;;;;-0.31;100.00;101849.47;5035085;28;20011;-78
2020/12/03 07:29:55;;;;;;;93.05;37.45;;;;;;;-0.21;100.00;101852.31;5044333;28;20036;-79
2020/12/03 07:32:36;;;;;;;93.45;34.45;;;;;;;-0.16;100.00;101852.78;5036939;28;20107;-77
2020/12/03 07:35:24;;;;;;;66.80;26.90;;;;;;;-0.22;100.00;101861.06;5041241;28;20426;-78
2020/12/03 07:38:01;;;;;;;73.03;31.13;;;;;;;-0.17;100.00;101858.97;5037234;28;20037;-78
2020/12/03 07:40:27;;;;;;;64.32;28.65;;;;;;;-0.22;100.00;101865.44;5034845;28;20140;-78
2020/12/03 07:43:01;;;;;;;57.97;22.42;;;;;;;-0.13;100.00;101870.03;5034658;28;20442;-78
2020/12/03 07:45:42;;;;;;;49.70;21.95;;;;;;;-0.19;100.00;101870.47;5039537;28;20040;-78
2020/12/03 07:48:22;;;;;;;55.38;24.80;;;;;;;-0.13;100.00;101870.03;5038996;28;20053;-78
2020/12/03 07:51:02;;;;;;;61.78;27.10;;;;;;;-0.07;100.00;101883.47;5039193;28;20100;-77
2020/12/03 07:53:30;;;;;;;51.97;22.80;;;;;;;-0.07;100.00;101873.03;5037692;28;20031;-78
2020/12/03 07:55:55;;;;;;;47.53;21.63;;;;;;;-0.04;100.00;101862.38;5038467;28;20025;-78
2020/12/03 07:58:39;;;;;;;66.93;27.17;;;;;;;-0.07;100.00;101853.91;5065040;28;20051;-78
2020/12/03 08:01:26;;;;;;;37.22;17.77;;;;;;;-0.01;100.00;101872.59;5044078;28;20021;-78
2020/12/03 08:04:18;;;;;;;32.92;14.52;;;;;;;0.01;100.00;101861.22;5032717;28;20033;-78
2020/12/03 08:07:02;;;;;;;29.47;14.00;;;;;;;0.08;100.00;101870.28;5038089;28;20470;-78
2020/12/03 08:09:41;;;;;;;29.05;12.95;;;;;;;-0.09;100.00;101874.94;5037389;28;20052;-78
2020/12/03 08:12:10;;;;;;;28.30;13.48;;;;;;;-0.04;100.00;101872.81;5037920;28;20029;-78
2020/12/03 08:14:47;;;;;;;40.05;18.63;;;;;;;-0.01;100.00;101872.59;5038810;28;20117;-78
2020/12/03 08:17:18;;;;;;;24.98;11.48;;;;;;;-0.06;100.00;101866.03;5047317;28;20033;-78
2020/12/03 08:19:47;;;;;;;27.90;13.38;;;;;;;0.07;100.00;101871.25;5038510;28;20544;-78
2020/12/03 08:22:34;;;;;;;27.63;14.27;;;;;;;0.14;99.81;101869.84;5041094;28;20021;-78
2020/12/03 08:25:01;;;;;;;26.90;12.82;;;;;;;0.07;99.93;101866.00;5036656;28;20116;-78
2020/12/03 08:27:27;;;;;;;18.25;8.70;;;;;;;0.07;99.96;101866.84;5040487;28;20017;-77
2020/12/03 08:29:53;;;;;;;28.52;12.50;;;;;;;0.03;100.00;101862.78;5034069;28;20030;-78
2020/12/03 08:32:18;;;;;;;30.10;10.65;;;;;;;1.65;100.00;101859.44;5034455;28;20043;-78
2020/12/03 08:34:44;;;;;;;33.85;15.02;;;;;;;0.20;98.94;101858.94;5032665;28;20044;-77
2020/12/03 08:37:15;;;;;;;41.17;17.80;;;;;;;0.23;99.60;101848.28;5037999;28;20473;-79
2020/12/03 08:39:43;;;;;;;26.45;12.52;;;;;;;0.21;99.69;101852.78;5039044;28;20129;-79
2020/12/03 08:42:10;;;;;;;21.45;10.20;;;;;;;0.03;99.18;101852.34;5035791;28;20037;-78
2020/12/03 08:44:36;;;;;;;29.52;13.75;;;;;;;0.09;99.43;101846.69;5032072;28;20069;-78
2020/12/03 08:47:09;;;;;;;25.38;12.48;;;;;;;0.15;99.65;101838.41;5032611;28;20078;-77
2020/12/03 08:49:43;;;;;;;19.50;10.27;;;;;;;0.42;100.00;101832.09;5036058;28;20033;-78
2020/12/03 08:52:09;;;;;;;22.65;11.10;;;;;;;0.20;98.96;101835.44;5039852;28;20028;-79
2020/12/03 08:54:34;;;;;;;24.08;12.35;;;;;;;0.24;99.23;101829.03;5037925;28;20454;-79
2020/12/03 08:57:08;;;;;;;25.02;11.88;;;;;;;0.14;98.18;101828.03;5036933;28;20037;-78
2020/12/03 08:59:38;;;;;;;27.75;12.95;;;;;;;0.13;98.81;101821.97;5042568;28;20107;-79
2020/12/03 09:02:09;;;;;;;25.65;12.27;;;;;;;0.01;98.89;101816.81;5064872;28;20025;-78
2020/12/03 09:04:38;;;;;;;39.38;17.33;;;;;;;0.06;99.02;101814.69;5041117;28;20017;-77
2020/12/03 09:07:06;;;;;;;34.33;15.25;;;;;;;0.20;98.50;101819.75;5042579;28;20108;-78
2020/12/03 09:09:32;;;;;;;29.27;17.98;;;;;;;0.27;96.72;101817.53;5037942;28;20036;-78
2020/12/03 09:11:58;;;;;;;21.20;10.18;;;;;;;0.81;99.70;101817.00;5041180;28;20037;-76
2020/12/03 09:14:27;;;;;;;51.70;28.20;;;;;;;0.63;94.31;101808.75;5045787;28;20037;-79
2020/12/03 09:17:03;;;;;;;124.75;55.13;;;;;;;0.27;96.04;101809.69;5054582;28;20029;-79
2020/12/03 09:19:29;;;;;;;31.17;15.35;;;;;;;0.35;96.82;101817.81;5048747;28;20024;-78
2020/12/03 09:21:57;;;;;;;28.52;14.82;;;;;;;0.24;97.17;101810.75;5046436;28;20072;-77
2020/12/03 09:24:25;;;;;;;28.25;13.65;;;;;;;0.18;97.87;101813.78;5035695;28;20037;-79
2020/12/03 09:26:51;;;;;;;28.52;14.75;;;;;;;0.19;96.74;101820.72;5038168;28;20029;-79
2020/12/03 09:29:19;;;;;;;24.88;11.65;;;;;;;0.31;96.76;101811.16;5044445;28;20024;-77
2020/12/03 09:31:45;;;;;;;94.88;41.00;;;;;;;0.27;96.81;101805.28;5040681;28;20036;-79
2020/12/03 09:34:12;;;;;;;32.65;15.77;;;;;;;0.17;97.15;101812.97;5033916;28;20034;-78
2020/12/03 09:36:39;;;;;;;28.70;13.43;;;;;;;0.06;97.27;101801.63;5036131;28;20021;-79
2020/12/03 09:39:05;;;;;;;26.10;12.23;;;;;;;-0.04;97.38;101801.47;5045398;28;20037;-77
2020/12/03 09:41:33;;;;;;;62.42;31.02;;;;;;;-0.02;97.63;101792.56;5036349;28;20112;-78
2020/12/03 09:44:03;;;;;;;464.48;264.15;;;;;;;0.22;97.00;101792.56;5034453;28;20450;-79
2020/12/03 09:46:33;;;;;;;395.27;191.65;;;;;;;0.17;96.29;101786.00;5038178;28;20359;-79
2020/12/03 09:49:00;;;;;;;107.43;54.25;;;;;;;0.20;97.02;101784.00;5033178;28;20025;-79
2020/12/03 09:51:25;;;;;;;169.10;79.95;;;;;;;0.45;95.27;101780.44;5039817;28;20032;-79
2020/12/03 09:53:52;;;;;;;33.78;15.90;;;;;;;0.32;96.02;101781.44;5032383;28;20029;-79
2020/12/03 09:56:20;;;;;;;42.97;24.50;;;;;;;0.31;95.82;101788.47;5035606;28;20041;-79
2020/12/03 09:58:56;;;;;;;80.45;45.65;;;;;;;0.47;94.78;101777.69;5032659;28;20210;-77
2020/12/03 10:01:41;;;;;;;87.88;45.13;;;;;;;0.53;95.71;101766.78;5035907;28;20080;-79
2020/12/03 10:04:34;;;;;;;35.13;18.42;;;;;;;0.53;95.58;101768.56;5049773;28;20037;-78
2020/12/03 10:07:13;;;;;;;43.63;21.02;;;;;;;0.56;95.33;101757.88;5045280;28;20037;-80
2020/12/03 10:10:03;;;;;;;25.00;11.90;;;;;;;0.42;94.60;101767.59;5048207;28;20032;-80
2020/12/03 10:12:55;;;;;;;22.92;11.10;;;;;;;0.46;95.23;101760.34;5039487;28;20033;-78
2020/12/03 10:15:40;;;;;;;39.65;20.05;;;;;;;0.64;95.82;101747.69;5046848;28;20052;-81
2020/12/03 10:18:15;;;;;;;30.65;14.68;;;;;;;0.36;95.95;101734.03;5047125;28;20033;-79
2020/12/03 10:20:41;;;;;;;27.85;14.13;;;;;;;0.36;95.87;101733.22;5039317;28;20080;-81
2020/12/03 10:23:31;;;;;;;58.17;26.08;;;;;;;0.40;95.45;101730.28;5038305;28;20179;-80
2020/12/03 10:26:11;;;;;;;209.57;97.00;;;;;;;0.52;95.49;101720.69;5021378;28;20048;-77
2020/12/03 10:28:52;;;;;;;41.47;18.02;;;;;;;2.00;98.81;101709.94;5066100;28;20029;-78
2020/12/03 10:31:21;;;;;;;36.72;16.63;;;;;;;2.26;96.69;101707.75;5070936;28;20435;-77
2020/12/03 10:33:49;;;;;;;52.95;25.08;;;;;;;2.51;87.58;101711.78;5071551;28;20081;-77
2020/12/03 10:36:30;;;;;;;37.47;21.70;;;;;;;0.90;93.86;101715.09;5046057;28;20128;-78
2020/12/03 10:38:58;;;;;;;33.13;17.80;;;;;;;0.81;94.17;101707.97;5091585;28;20085;-78
2020/12/03 10:41:31;;;;;;;24.60;13.95;;;;;;;0.47;95.13;101712.34;5091573;28;20020;-78
2020/12/03 10:44:02;;;;;;;35.63;17.38;;;;;;;0.50;96.13;101719.13;5092271;28;20031;-77
2020/12/03 10:46:33;;;;;;;38.92;19.00;;;;;;;0.48;96.29;101719.22;5092327;28;20054;-78
2020/12/03 10:49:01;;;;;;;48.83;20.67;;;;;;;0.45;96.01;101717.69;5092281;28;20051;-77
2020/12/03 10:51:26;;;;;;;48.65;21.02;;;;;;;0.49;96.21;101704.41;5092194;28;20056;-77
2020/12/03 10:53:53;;;;;;;39.45;20.65;;;;;;;0.54;97.10;101703.06;5092163;28;20440;-78
2020/12/03 10:56:29;;;;;;;34.90;20.70;;;;;;;0.59;96.94;101702.75;5092191;28;20034;-78
2020/12/03 10:59:04;;;;;;;42.20;19.92;;;;;;;0.55;96.07;101706.53;5092083;28;20035;-78
2020/12/03 11:01:32;;;;;;;43.08;21.48;;;;;;;0.51;95.73;101705.91;5092128;28;20039;-78
2020/12/03 11:04:04;;;;;;;48.33;23.80;;;;;;;0.61;94.98;101700.84;5091960;28;20052;-77
2020/12/03 11:06:31;;;;;;;39.45;17.92;;;;;;;0.52;95.50;101697.16;5092133;28;20469;-78
2020/12/03 11:08:58;;;;;;;63.88;33.67;;;;;;;0.57;95.68;101692.38;5093115;28;20032;-77
2020/12/03 11:11:31;;;;;;;38.03;18.48;;;;;;;0.53;95.09;101690.13;5092125;28;20016;-77
2020/12/03 11:13:58;;;;;;;34.92;19.25;;;;;;;0.59;96.17;101692.28;5092863;28;20032;-78
2020/12/03 11:16:28;;;;;;;40.58;20.67;;;;;;;0.65;96.26;101690.03;5091843;28;20024;-78
2020/12/03 11:18:58;;;;;;;33.00;18.25;;;;;;;0.75;95.85;101692.75;5095756;28;20473;-78
2020/12/03 11:21:27;;;;;;;42.97;20.63;;;;;;;0.65;95.50;101690.03;5096733;28;20023;-78
2020/12/03 11:24:23;;;;;;;82.70;52.75;;;;;;;0.78;94.56;101683.84;5095633;28;20059;-78
2020/12/03 11:26:50;;;;;;;67.95;39.13;;;;;;;0.74;96.51;101678.03;5095579;28;20027;-77
2020/12/03 11:29:16;;;;;;;115.07;67.78;;;;;;;0.73;95.10;101688.59;5096648;28;20074;-77
2020/12/03 11:31:43;;;;;;;49.05;25.55;;;;;;;0.71;95.99;101688.72;5096540;28;20445;-78